Time;durP1;ratioP1;P1;durP2;ratioP2;P2;SDS_P1;SDS_P2;PMS_P1;PMS_P2;Temp;Humidity;BMP_temperature;BMP_pressure;BME280_temperature;BME280_humidity;BME280_pressure;Samples;Min_cycle;Max_cycle;Signal;HPM_P1;HPM_P2
2021/01/10 00:00:27;;;;;;;;;90.50;67.00;;;;;-3.96;85.69;101681.53;3725586;38;18173;-59
2021/01/10 00:02:54;;;;;;;;;96.25;67.00;;;;;-3.90;85.90;101696.28;3725999;38;18139;-59
2021/01/10 00:05:30;;;;;;;;;86.00;65.00;;;;;-3.90;85.76;101714.78;3725538;38;18173;-61
2021/01/10 00:07:58;;;;;;;;;60.50;43.25;;;;;-3.97;85.88;101697.44;3725549;37;18144;-61
2021/01/10 00:10:25;;;;;;;;;81.50;63.50;;;;;-3.84;86.13;101712.75;3725490;37;18143;-60
2021/01/10 00:12:57;;;;;;;;;83.00;61.50;;;;;-3.78;85.94;101723.06;3725777;37;18134;-61
2021/01/10 00:15:24;;;;;;;;;82.00;63.25;;;;;-3.79;85.74;101723.12;3725604;37;18125;-61
2021/01/10 00:17:50;;;;;;;;;75.50;59.75;;;;;-3.87;85.63;101712.88;3725373;38;20480;-61
2021/01/10 00:20:20;;;;;;;;;76.00;60.75;;;;;-3.87;85.82;101718.16;3725811;37;18144;-60
2021/01/10 00:22:51;;;;;;;;;83.00;60.75;;;;;-3.82;85.70;101723.25;3725838;37;18135;-62
2021/01/10 00:25:18;;;;;;;;;88.00;63.25;;;;;-3.85;85.57;101729.53;3725711;38;20406;-60
2021/01/10 00:27:45;;;;;;;;;75.25;57.00;;;;;-4.01;85.53;101731.94;3725661;37;18371;-60
2021/01/10 00:30:14;;;;;;;;;89.25;64.75;;;;;-4.37;86.12;101691.16;3725839;38;18111;-60
2021/01/10 00:32:57;;;;;;;;;86.75;62.50;;;;;-4.17;86.04;101716.78;3725530;38;18105;-60
2021/01/10 00:35:26;;;;;;;;;82.25;61.50;;;;;-3.92;86.21;101732.50;3725711;37;18096;-61
2021/01/10 00:37:55;;;;;;;;;81.75;62.25;;;;;-3.86;86.11;101724.31;3725529;37;18108;-60
2021/01/10 00:40:23;;;;;;;;;80.00;62.75;;;;;-3.87;86.04;101723.44;3725453;38;18110;-61
2021/01/10 00:42:53;;;;;;;;;85.50;61.75;;;;;-3.74;86.13;101729.97;3725815;37;18105;-60
2021/01/10 00:45:21;;;;;;;;;90.00;67.00;;;;;-3.76;85.68;101739.75;3725803;37;20353;-60
2021/01/10 00:47:47;;;;;;;;;80.00;61.25;;;;;-3.82;85.71;101728.56;3725399;37;18086;-59
2021/01/10 00:50:14;;;;;;;;;83.75;64.00;;;;;-3.88;85.69;101736.75;3725831;37;20372;-60
2021/01/10 00:52:41;;;;;;;;;80.00;60.50;;;;;-3.87;85.77;101736.69;3725614;38;18084;-60
2021/01/10 00:55:10;;;;;;;;;70.75;53.50;;;;;-3.90;85.99;101717.44;3725991;37;18105;-59
2021/01/10 00:57:38;;;;;;;;;79.75;59.25;;;;;-3.86;85.62;101734.91;3725740;37;18091;-59
2021/01/10 01:00:13;;;;;;;;;86.50;63.75;;;;;-3.93;85.78;101731.63;3724772;38;18086;-60
2021/01/10 01:02:39;;;;;;;;;80.25;61.75;;;;;-3.96;85.70;101738.84;3724933;38;18063;-61
2021/01/10 01:05:07;;;;;;;;;75.25;62.75;;;;;-4.06;85.80;101731.28;3725781;38;18081;-60
2021/01/10 01:07:34;;;;;;;;;90.50;65.00;;;;;-4.13;85.93;101726.28;3725727;38;18084;-60
2021/01/10 01:10:01;;;;;;;;;76.50;59.75;;;;;-4.07;86.00;101726.03;3725663;38;18062;-60
2021/01/10 01:12:28;;;;;;;;;87.75;62.50;;;;;-4.02;85.86;101730.22;3725790;38;18065;-59
2021/01/10 01:14:54;;;;;;;;;76.75;62.00;;;;;-3.92;85.97;101729.84;3725927;38;18066;-60
2021/01/10 01:17:22;;;;;;;;;80.00;58.50;;;;;-3.89;86.06;101724.44;3725612;38;18075;-61
2021/01/10 01:19:49;;;;;;;;;81.50;62.75;;;;;-3.82;86.16;101725.91;3725260;38;20314;-60
2021/01/10 01:22:15;;;;;;;;;72.25;53.25;;;;;-3.80;85.85;101730.22;3725624;38;20441;-61
2021/01/10 01:24:42;;;;;;;;;85.25;62.00;;;;;-3.88;85.48;101727.03;3725978;38;18048;-61
2021/01/10 01:27:09;;;;;;;;;81.50;64.00;;;;;-4.04;85.64;101724.13;3725245;38;18055;-61
2021/01/10 01:29:39;;;;;;;;;89.75;64.50;;;;;-4.07;85.47;101734.84;3725313;38;18059;-61
2021/01/10 01:32:05;;;;;;;;;84.75;63.75;;;;;-4.05;85.79;101735.63;3725644;37;18031;-61
2021/01/10 01:34:31;;;;;;;;;86.00;64.00;;;;;-4.05;85.84;101732.13;3726072;37;18024;-61
2021/01/10 01:36:58;;;;;;;;;85.50;63.75;;;;;-4.02;85.81;101734.66;3725759;38;18053;-62
2021/01/10 01:39:25;;;;;;;;;84.50;61.50;;;;;-4.00;85.54;101738.09;3725569;38;18042;-61
2021/01/10 01:41:51;;;;;;;;;82.50;61.25;;;;;-4.24;85.44;101707.38;3725934;37;20283;-61
2021/01/10 01:44:18;;;;;;;;;84.00;64.25;;;;;-4.42;85.57;101686.03;3726633;37;18109;-61
2021/01/10 01:46:44;;;;;;;;;74.25;57.50;;;;;-4.21;85.39;101737.19;3725913;38;18015;-60
2021/01/10 01:49:12;;;;;;;;;82.25;63.25;;;;;-4.25;85.61;101734.72;3726467;38;20300;-60
2021/01/10 01:51:39;;;;;;;;;87.00;64.50;;;;;-4.37;85.65;101718.44;3725490;38;18017;-60
2021/01/10 01:54:07;;;;;;;;;86.75;65.00;;;;;-4.31;85.58;101732.31;3725445;38;18004;-60
2021/01/10 01:56:35;;;;;;;;;82.50;64.75;;;;;-4.35;85.74;101735.09;3725777;38;17998;-61
2021/01/10 01:59:11;;;;;;;;;68.00;51.25;;;;;-4.39;85.60;101735.25;3725491;38;18027;-62
2021/01/10 02:01:39;;;;;;;;;74.50;59.00;;;;;-4.36;85.93;101740.44;3725877;37;17981;-61
2021/01/10 02:04:32;;;;;;;;;74.00;57.75;;;;;-4.31;86.05;101733.19;3725893;38;18022;-62
2021/01/10 02:07:09;;;;;;;;;75.50;57.50;;;;;-4.44;85.88;101716.94;3725832;37;20284;-62
2021/01/10 02:09:43;;;;;;;;;82.00;55.50;;;;;-4.11;86.23;101754.38;3725715;38;17998;-61
2021/01/10 02:12:12;;;;;;;;;80.25;58.25;;;;;-4.07;85.52;101749.84;3725748;37;20267;-60
2021/01/10 02:15:00;;;;;;;;;75.00;57.25;;;;;-4.03;86.02;101749.66;3725830;38;17988;-61
2021/01/10 02:17:35;;;;;;;;;73.50;58.50;;;;;-3.92;85.87;101754.50;3725625;37;20247;-60
2021/01/10 02:20:16;;;;;;;;;70.25;51.75;;;;;-3.97;85.51;101758.25;3725822;38;20243;-61
2021/01/10 02:22:49;;;;;;;;;88.00;64.75;;;;;-4.15;85.18;101752.78;3725414;37;20236;-62
2021/01/10 02:25:17;;;;;;;;;78.50;61.00;;;;;-4.16;85.69;101759.00;3725908;37;17993;-61
2021/01/10 02:27:44;;;;;;;;;75.00;58.50;;;;;-4.17;85.50;101762.59;3725442;37;17985;-61
2021/01/10 02:30:12;;;;;;;;;81.25;61.75;;;;;-4.23;85.42;101769.88;3725627;37;17951;-61
2021/01/10 02:32:45;;;;;;;;;71.75;55.75;;;;;-4.21;85.44;101762.75;3725937;37;17975;-62
2021/01/10 02:35:15;;;;;;;;;75.25;58.50;;;;;-4.18;85.68;101766.16;3725662;38;20231;-62
2021/01/10 02:38:14;;;;;;;;;83.25;59.50;;;;;-4.17;85.70;101767.00;3725280;38;20201;-61
2021/01/10 02:41:16;;;;;;;;;77.25;58.75;;;;;-4.17;85.63;101790.81;3725888;38;17948;-59
2021/01/10 02:43:55;;;;;;;;;76.00;61.50;;;;;-4.20;85.30;101794.41;3726180;38;20197;-57
2021/01/10 02:46:25;;;;;;;;;72.75;58.25;;;;;-4.16;85.38;101789.87;3725962;37;17970;-61
2021/01/10 02:48:52;;;;;;;;;75.75;58.25;;;;;-4.11;85.71;101793.19;3725576;38;20266;-61
2021/01/10 02:51:18;;;;;;;;;77.00;55.50;;;;;-4.10;85.22;101781.69;3725765;38;20227;-60
2021/01/10 02:53:46;;;;;;;;;81.00;60.50;;;;;-4.07;85.67;101781.56;3725835;38;20213;-62
2021/01/10 02:56:12;;;;;;;;;82.00;52.50;;;;;-4.10;85.44;101784.31;3726014;37;20201;-61
2021/01/10 02:58:41;;;;;;;;;91.75;64.25;;;;;-4.14;85.36;101785.38;3725979;38;20200;-62
2021/01/10 03:01:11;;;;;;;;;74.75;59.75;;;;;-4.19;85.41;101795.28;3725402;38;17923;-61
2021/01/10 03:03:38;;;;;;;;;83.25;64.00;;;;;-4.28;85.26;101790.34;3725797;38;17909;-61
2021/01/10 03:06:06;;;;;;;;;74.00;56.50;;;;;-4.35;85.45;101792.38;3725506;38;17926;-60
2021/01/10 03:08:33;;;;;;;;;79.75;60.50;;;;;-4.37;85.36;101792.41;3725719;37;20163;-61
2021/01/10 03:11:00;;;;;;;;;75.25;56.50;;;;;-4.42;85.56;101781.16;3725723;38;17919;-61
2021/01/10 03:13:27;;;;;;;;;77.50;58.00;;;;;-4.21;85.67;101798.00;3725339;37;20164;-61
2021/01/10 03:15:54;;;;;;;;;72.75;57.00;;;;;-4.10;85.90;101794.91;3725712;38;20187;-61
2021/01/10 03:18:23;;;;;;;;;81.50;60.00;;;;;-4.02;85.39;101791.03;3725851;37;20181;-61
2021/01/10 03:20:50;;;;;;;;;81.25;62.00;;;;;-4.15;84.96;101802.16;3725356;37;20186;-61
2021/01/10 03:23:17;;;;;;;;;81.50;59.75;;;;;-4.28;85.10;101782.41;3725646;38;20151;-62
2021/01/10 03:25:45;;;;;;;;;73.25;59.00;;;;;-4.17;85.35;101799.59;3725787;38;17897;-62
2021/01/10 03:28:11;;;;;;;;;81.00;63.25;;;;;-4.20;85.11;101799.72;3725462;38;20165;-62
2021/01/10 03:30:37;;;;;;;;;74.25;59.50;;;;;-4.19;85.43;101803.22;3725736;37;20164;-62
2021/01/10 03:33:04;;;;;;;;;74.25;53.25;;;;;-4.18;85.13;101799.66;3725687;37;20161;-62
2021/01/10 03:35:34;;;;;;;;;82.00;61.75;;;;;-4.22;85.27;101798.91;3726060;38;20147;-60
2021/01/10 03:38:05;;;;;;;;;80.00;63.25;;;;;-4.31;85.23;101803.69;3725604;37;20131;-62
2021/01/10 03:40:32;;;;;;;;;80.00;59.75;;;;;-4.32;85.28;101805.47;3725722;38;17882;-62
2021/01/10 03:42:59;;;;;;;;;82.50;60.75;;;;;-4.37;85.21;101808.28;3725447;37;20136;-62
2021/01/10 03:45:26;;;;;;;;;84.50;63.75;;;;;-4.53;84.98;101791.28;3725946;38;20147;-62
2021/01/10 03:47:53;;;;;;;;;87.75;62.75;;;;;-4.42;84.90;101818.16;3725557;37;17869;-63
2021/01/10 03:50:23;;;;;;;;;82.25;59.25;;;;;-4.53;84.87;101816.81;3725587;38;17855;-61
2021/01/10 03:52:49;;;;;;;;;81.50;58.75;;;;;-4.58;85.30;101814.34;3725403;38;17838;-60
2021/01/10 03:55:16;;;;;;;;;87.75;61.50;;;;;-4.58;85.08;101816.13;3725543;38;17854;-61
2021/01/10 03:57:48;;;;;;;;;69.00;50.25;;;;;-4.59;85.12;101806.47;3725703;38;20137;-60
2021/01/10 04:00:17;;;;;;;;;70.75;55.75;;;;;-4.55;85.36;101808.97;3725856;38;20135;-61
2021/01/10 04:02:44;;;;;;;;;80.25;59.75;;;;;-4.58;85.12;101809.06;3725872;38;20101;-61
2021/01/10 04:05:12;;;;;;;;;81.75;60.75;;;;;-4.66;85.07;101814.62;3725937;38;17836;-62
2021/01/10 04:07:44;;;;;;;;;85.25;63.25;;;;;-4.75;84.91;101819.41;3725774;37;20091;-60
2021/01/10 04:10:11;;;;;;;;;82.75;62.00;;;;;-4.80;85.14;101819.56;3725744;37;17828;-61
2021/01/10 04:12:37;;;;;;;;;69.00;52.50;;;;;-4.86;85.02;101808.38;3725905;38;17819;-61
2021/01/10 04:15:05;;;;;;;;;65.00;54.25;;;;;-4.94;85.00;101790.16;3726096;37;20098;-62
2021/01/10 04:17:34;;;;;;;;;79.25;56.50;;;;;-4.83;85.10;101821.47;3726061;38;17835;-62
2021/01/10 04:20:00;;;;;;;;;75.50;60.25;;;;;-4.82;84.87;101823.19;3725775;37;20085;-60
2021/01/10 04:22:27;;;;;;;;;79.25;58.75;;;;;-4.88;84.98;101820.75;3725857;37;20074;-61
2021/01/10 04:24:54;;;;;;;;;71.00;55.50;;;;;-4.92;84.97;101821.78;3725701;38;17833;-60
2021/01/10 04:27:22;;;;;;;;;80.50;60.25;;;;;-4.99;84.99;101821.13;3725763;38;20071;-61
2021/01/10 04:29:51;;;;;;;;;81.25;57.25;;;;;-5.03;85.03;101825.66;3725549;37;17797;-60
2021/01/10 04:32:19;;;;;;;;;82.25;60.25;;;;;-5.05;85.09;101816.06;3725496;37;17812;-61
2021/01/10 04:34:45;;;;;;;;;78.50;61.25;;;;;-5.06;84.75;101825.75;3725879;37;17813;-61
2021/01/10 04:37:11;;;;;;;;;83.00;62.00;;;;;-5.15;84.82;101807.59;3726119;37;17798;-62
2021/01/10 04:39:37;;;;;;;;;76.75;58.75;;;;;-5.17;84.89;101806.78;3725327;38;17783;-61
2021/01/10 04:42:08;;;;;;;;;84.25;59.50;;;;;-5.14;84.62;101822.53;3725789;38;17788;-62
2021/01/10 04:44:36;;;;;;;;;74.25;61.00;;;;;-5.23;85.03;101816.72;3725455;37;17906;-63
2021/01/10 04:47:03;;;;;;;;;85.25;60.00;;;;;-5.41;85.04;101794.47;3725605;38;17769;-63
2021/01/10 04:49:30;;;;;;;;;81.25;58.50;;;;;-5.41;85.21;101803.25;3725607;37;17782;-63
2021/01/10 04:51:58;;;;;;;;;85.50;66.00;;;;;-5.37;85.26;101820.69;3725815;37;17778;-62
2021/01/10 04:54:30;;;;;;;;;85.75;65.25;;;;;-5.31;85.25;101830.19;3725502;37;17777;-61
2021/01/10 04:56:57;;;;;;;;;73.25;55.50;;;;;-5.27;85.37;101821.25;3725363;38;17775;-63
2021/01/10 04:59:29;;;;;;;;;82.00;60.50;;;;;-5.20;85.59;101828.03;3725905;37;17790;-61
2021/01/10 05:02:02;;;;;;;;;73.75;58.00;;;;;-5.16;85.77;101831.41;3725530;37;17755;-62
2021/01/10 05:04:31;;;;;;;;;69.50;55.75;;;;;-5.13;85.87;101816.34;3726087;38;17752;-62
2021/01/10 05:06:59;;;;;;;;;72.25;57.00;;;;;-5.09;85.79;101809.16;3725464;37;17747;-62
2021/01/10 05:09:27;;;;;;;;;65.50;51.75;;;;;-4.90;85.41;101833.16;3725889;38;20002;-62
2021/01/10 05:11:53;;;;;;;;;72.25;55.75;;;;;-4.93;85.46;101846.47;3725463;37;17747;-63
2021/01/10 05:14:20;;;;;;;;;75.00;55.25;;;;;-4.89;85.45;101840.16;3725915;37;17738;-62
2021/01/10 05:16:46;;;;;;;;;71.00;56.75;;;;;-4.86;85.64;101842.69;3725849;38;20126;-61
2021/01/10 05:19:21;;;;;;;;;74.00;55.75;;;;;-4.81;85.51;101843.41;3725909;37;20011;-62
2021/01/10 05:21:47;;;;;;;;;75.25;59.75;;;;;-4.76;85.44;101841.47;3729274;38;20005;-62
2021/01/10 05:24:18;;;;;;;;;81.50;60.25;;;;;-4.66;85.54;101842.81;3727849;37;17739;-63
2021/01/10 05:26:45;;;;;;;;;91.50;66.50;;;;;-4.68;85.44;101839.41;3725371;38;17737;-62
2021/01/10 05:29:12;;;;;;;;;81.00;61.50;;;;;-4.68;85.27;101842.88;3726114;38;17727;-62
2021/01/10 05:31:45;;;;;;;;;86.25;64.50;;;;;-4.66;85.49;101845.47;3725874;38;17709;-62
2021/01/10 05:34:16;;;;;;;;;77.25;60.50;;;;;-4.68;85.48;101829.66;3725899;37;17738;-61
2021/01/10 05:36:43;;;;;;;;;67.75;56.00;;;;;-4.53;85.75;101835.31;3725787;38;17723;-62
2021/01/10 05:39:27;;;;;;;;;48.75;24.50;;;;;-4.59;85.50;101825.84;3725570;38;19996;-62
2021/01/10 05:42:04;;;;;;;;;83.25;63.75;;;;;-4.42;85.60;101846.34;3725630;38;17713;-62
2021/01/10 05:45:00;;;;;;;;;84.50;66.25;;;;;-4.42;85.20;101839.28;3725928;38;17731;-62
2021/01/10 05:47:38;;;;;;;;;88.00;63.75;;;;;-4.36;85.59;101836.44;3725404;37;17721;-62
2021/01/10 05:50:15;;;;;;;;;83.75;61.25;;;;;-4.34;85.45;101839.87;3725506;38;17722;-63
2021/01/10 05:52:43;;;;;;;;;84.00;61.50;;;;;-4.32;85.46;101841.59;3725460;38;17715;-63
2021/01/10 05:55:13;;;;;;;;;91.75;64.50;;;;;-4.28;85.39;101861.72;3725563;38;17679;-62
2021/01/10 05:57:40;;;;;;;;;82.50;64.25;;;;;-4.36;85.14;101844.34;3725663;38;17708;-62
2021/01/10 06:00:08;;;;;;;;;78.75;61.75;;;;;-4.21;85.32;101855.28;3725501;37;17689;-62
2021/01/10 06:02:38;;;;;;;;;92.50;66.00;;;;;-4.28;85.15;101859.06;3725500;37;17679;-63
2021/01/10 06:05:13;;;;;;;;;71.25;54.25;;;;;-4.35;84.92;101861.94;3725163;38;17700;-62
2021/01/10 06:07:41;;;;;;;;;84.00;64.75;;;;;-4.38;85.22;101862.03;3725346;37;17671;-64
2021/01/10 06:10:10;;;;;;;;;72.75;53.00;;;;;-4.32;85.06;101860.09;3725385;37;17684;-62
2021/01/10 06:12:37;;;;;;;;;65.00;49.75;;;;;-4.40;85.30;101863.03;3725697;38;17689;-62
2021/01/10 06:15:19;;;;;;;;;75.25;58.00;;;;;-4.42;85.35;101859.56;3725582;38;17659;-63
2021/01/10 06:17:47;;;;;;;;;83.75;64.50;;;;;-4.21;85.64;101872.00;3725785;37;17650;-62
2021/01/10 06:20:24;;;;;;;;;79.50;58.00;;;;;-4.13;85.38;101879.59;3725944;37;17674;-62
2021/01/10 06:22:52;;;;;;;;;82.75;61.00;;;;;-4.12;85.58;101862.81;3725327;37;19908;-63
2021/01/10 06:25:23;;;;;;;;;79.00;61.25;;;;;-3.92;85.43;101897.31;3725440;37;19904;-62
2021/01/10 06:28:19;;;;;;;;;76.50;57.50;;;;;-3.94;85.09;101878.00;3725457;37;19896;-63
2021/01/10 06:31:06;;;;;;;;;73.50;54.50;;;;;-3.81;85.27;101899.56;3725669;38;17663;-62
2021/01/10 06:33:34;;;;;;;;;90.75;69.25;;;;;-3.88;84.96;101883.06;3725289;37;17645;-63
2021/01/10 06:36:07;;;;;;;;;85.00;65.75;;;;;-3.86;85.35;101875.91;3725617;37;17659;-62
2021/01/10 06:38:45;;;;;;;;;91.00;67.50;;;;;-3.64;85.09;101897.13;3725880;37;17645;-63
2021/01/10 06:41:58;;;;;;;;;100.50;74.25;;;;;-3.59;85.36;101881.88;3725745;37;17642;-63
2021/01/10 06:44:24;;;;;;;;;100.25;75.50;;;;;-3.41;84.95;101898.81;3725774;37;17626;-62
2021/01/10 06:46:54;;;;;;;;;101.00;73.25;;;;;-3.43;84.85;101903.31;3725808;37;17635;-62
2021/01/10 06:49:22;;;;;;;;;94.75;72.50;;;;;-3.45;84.62;101900.72;3726647;37;17631;-62
2021/01/10 06:51:53;;;;;;;;;108.75;85.25;;;;;-3.49;85.13;101872.66;3726013;38;17633;-64
2021/01/10 06:54:20;;;;;;;;;99.75;73.50;;;;;-3.26;84.80;101908.81;3728267;38;17601;-63
2021/01/10 06:56:51;;;;;;;;;104.25;79.50;;;;;-3.29;84.56;101914.22;3726163;38;17618;-63
2021/01/10 06:59:27;;;;;;;;;97.00;72.75;;;;;-3.18;84.82;101917.28;3725793;37;17625;-63
2021/01/10 07:01:58;;;;;;;;;91.75;70.50;;;;;-3.13;84.84;101917.97;3725718;37;17601;-64
2021/01/10 07:04:47;;;;;;;;;75.25;57.00;;;;;-3.05;85.00;101925.56;3725558;38;17618;-62
2021/01/10 07:07:32;;;;;;;;;78.75;56.50;;;;;-2.91;85.16;101930.31;3725896;38;17593;-62
2021/01/10 07:10:00;;;;;;;;;86.00;62.00;;;;;-3.01;84.74;101898.91;3725758;38;17603;-63
2021/01/10 07:12:28;;;;;;;;;88.75;64.75;;;;;-2.69;84.79;101909.94;3725547;38;17588;-63
2021/01/10 07:15:32;;;;;;;;;86.00;61.00;;;;;-2.55;84.91;101912.81;3725873;37;17605;-62
2021/01/10 07:18:07;;;;;;;;;81.00;65.00;;;;;-2.40;84.63;101924.53;3725740;38;17617;-60
2021/01/10 07:20:41;;;;;;;;;77.25;55.75;;;;;-2.22;84.67;101926.38;3725432;37;17575;-60
2021/01/10 07:23:32;;;;;;;;;84.50;62.25;;;;;-1.98;84.87;101919.09;3725342;38;19847;-60
2021/01/10 07:25:59;;;;;;;;;84.50;60.25;;;;;-2.02;84.43;101893.63;3725227;37;17583;-59
2021/01/10 07:28:52;;;;;;;;;77.25;60.50;;;;;-1.74;84.45;101935.69;3725945;38;17584;-62
2021/01/10 07:31:20;;;;;;;;;55.50;44.50;;;;;-1.82;83.70;101906.84;3725404;37;19833;-62
2021/01/10 07:33:48;;;;;;;;;66.25;48.75;;;;;-1.83;83.53;101899.81;3725430;37;19806;-62
2021/01/10 07:36:16;;;;;;;;;64.00;51.25;;;;;-1.59;83.68;101915.53;3725847;37;19807;-63
2021/01/10 07:38:43;;;;;;;;;71.00;53.00;;;;;-1.35;83.50;101931.13;3725378;37;19813;-62
2021/01/10 07:41:27;;;;;;;;;66.50;53.75;;;;;-1.20;83.67;101921.56;3725371;37;19817;-65
2021/01/10 07:43:57;;;;;;;;;72.75;57.75;;;;;-1.00;83.42;101925.88;3725889;38;19820;-64
2021/01/10 07:46:55;;;;;;;;;66.25;52.25;;;;;-0.78;83.44;101937.16;3725368;37;19809;-61
2021/01/10 07:49:27;;;;;;;;;70.50;56.50;;;;;-0.80;82.44;101935.50;3725796;37;19807;-61
2021/01/10 07:51:54;;;;;;;;;75.25;58.75;;;;;-0.80;82.15;101939.03;3725810;38;20778;-60
2021/01/10 07:54:52;;;;;;;;;82.00;59.75;;;;;-0.71;82.82;101943.88;3725741;37;19805;-59
2021/01/10 07:57:33;;;;;;;;;80.25;61.00;;;;;-0.65;82.25;101934.75;3725952;37;17557;-60
2021/01/10 08:00:27;;;;;;;;;82.75;59.25;;;;;-0.57;82.17;101926.38;3725541;38;19797;-60
2021/01/10 08:03:18;;;;;;;;;72.25;54.50;;;;;-0.51;82.00;101932.22;3725860;38;19802;-59
2021/01/10 08:05:57;;;;;;;;;69.00;52.00;;;;;-0.41;81.93;101936.13;3725940;37;20758;-59
2021/01/10 08:08:43;;;;;;;;;64.25;49.75;;;;;-0.47;81.21;101941.75;3725511;37;19801;-59
2021/01/10 08:11:11;;;;;;;;;63.50;52.00;;;;;-0.60;79.94;101940.69;3725669;38;20772;-62
2021/01/10 08:13:44;;;;;;;;;60.00;48.00;;;;;-0.86;79.94;101918.06;3725690;38;20757;-60
2021/01/10 08:16:28;;;;;;;;;67.25;53.75;;;;;-0.77;79.97;101944.19;3725743;38;20748;-58
2021/01/10 08:19:00;;;;;;;;;62.00;48.25;;;;;-0.71;80.04;101922.63;3725785;38;20774;-59
2021/01/10 08:21:27;;;;;;;;;64.00;52.50;;;;;-0.61;79.82;101922.16;3725727;37;20737;-61
2021/01/10 08:23:54;;;;;;;;;72.25;56.50;;;;;-0.43;79.82;101934.47;3725529;37;20867;-60
2021/01/10 08:26:21;;;;;;;;;75.50;57.25;;;;;-0.44;79.37;101935.41;3725582;38;20748;-58
2021/01/10 08:28:54;;;;;;;;;75.75;57.25;;;;;-0.35;79.39;101962.41;3725648;37;20761;-59
2021/01/10 08:31:25;;;;;;;;;78.75;60.50;;;;;-0.29;79.53;101947.94;3725693;37;20744;-60
2021/01/10 08:34:20;;;;;;;;;71.25;56.00;;;;;-0.25;80.08;101917.56;3725247;38;20754;-58
2021/01/10 08:36:50;;;;;;;;;70.75;53.00;;;;;0.06;79.51;101940.72;3725680;37;20745;-58
2021/01/10 08:39:18;;;;;;;;;62.50;51.00;;;;;0.24;79.10;101941.53;3725448;37;20755;-59
2021/01/10 08:41:47;;;;;;;;;63.75;48.00;;;;;0.25;78.67;101933.47;3725664;38;20729;-61
2021/01/10 08:44:18;;;;;;;;;71.25;53.50;;;;;0.31;77.72;101953.56;3725881;37;20730;-64
2021/01/10 08:46:49;;;;;;;;;70.00;52.25;;;;;0.15;77.25;101931.37;3725598;38;20736;-63
2021/01/10 08:49:20;;;;;;;;;71.75;55.50;;;;;0.30;77.21;101952.72;3725802;38;20748;-64
2021/01/10 08:51:50;;;;;;;;;71.50;54.00;;;;;-0.02;77.00;101906.56;3724861;37;20739;-67
2021/01/10 08:54:23;;;;;;;;;74.00;55.25;;;;;0.11;76.58;101954.63;3725006;38;20715;-64
2021/01/10 08:56:55;;;;;;;;;62.25;48.75;;;;;0.14;76.70;101946.50;3725160;37;20717;-62
2021/01/10 08:59:21;;;;;;;;;65.75;51.75;;;;;0.28;76.40;101943.09;3725023;38;20712;-64
2021/01/10 09:01:49;;;;;;;;;63.75;51.00;;;;;0.39;75.81;101950.50;3725784;37;20841;-64
2021/01/10 09:04:17;;;;;;;;;60.00;46.00;;;;;0.51;75.20;101944.50;3726084;37;20730;-65
2021/01/10 09:07:24;;;;;;;;;66.25;48.00;;;;;0.65;75.94;101953.41;3725658;38;20707;-65
2021/01/10 09:10:03;;;;;;;;;63.75;50.00;;;;;0.66;75.04;101933.81;3725408;38;20784;-63
2021/01/10 09:12:47;;;;;;;;;71.25;53.00;;;;;0.75;75.03;101926.25;3725687;38;20692;-64
2021/01/10 09:15:28;;;;;;;;;69.25;50.00;;;;;0.84;74.57;101921.25;3725323;37;20710;-63
2021/01/10 09:18:07;;;;;;;;;60.25;48.25;;;;;0.87;73.66;101922.88;3725253;38;20682;-64
2021/01/10 09:20:58;;;;;;;;;57.00;46.25;;;;;0.92;72.91;101912.81;3725218;37;20691;-62
2021/01/10 09:23:25;;;;;;;;;65.25;50.00;;;;;0.92;71.87;101903.03;3726058;38;20694;-63
2021/01/10 09:25:53;;;;;;;;;48.75;40.50;;;;;0.85;70.75;101880.34;3725311;37;20690;-62
2021/01/10 09:28:21;;;;;;;;;59.25;46.50;;;;;1.09;71.17;101914.47;3726487;37;20693;-63
2021/01/10 09:30:57;;;;;;;;;67.00;55.00;;;;;0.93;71.19;101864.75;3726454;37;20683;-63
2021/01/10 09:33:32;;;;;;;;;61.00;46.25;;;;;1.23;70.85;101906.53;3725340;38;20668;-63
2021/01/10 09:36:03;;;;;;;;;61.75;51.50;;;;;1.27;70.48;101902.75;3725442;37;20680;-62
2021/01/10 09:38:31;;;;;;;;;71.25;52.75;;;;;1.37;70.50;101905.72;3725730;38;20676;-63
2021/01/10 09:41:14;;;;;;;;;68.00;52.75;;;;;1.40;70.82;101903.72;3725361;37;20785;-62
2021/01/10 09:43:55;;;;;;;;;77.25;52.50;;;;;1.44;71.06;101910.59;3725878;37;20667;-64
2021/01/10 09:46:39;;;;;;;;;73.25;53.00;;;;;1.53;70.97;101911.87;3725647;37;20680;-63
2021/01/10 09:49:22;;;;;;;;;66.00;52.00;;;;;1.62;71.07;101914.81;3725302;37;20644;-62
2021/01/10 09:52:12;;;;;;;;;63.50;51.00;;;;;1.51;70.80;101908.44;3725674;37;20660;-63
2021/01/10 09:54:38;;;;;;;;;65.25;52.00;;;;;1.33;70.95;101892.56;3725350;37;20719;-63
2021/01/10 09:57:31;;;;;;;;;68.75;55.00;;;;;1.52;71.24;101903.00;3725669;37;20626;-63
2021/01/10 10:00:04;;;;;;;;;66.25;52.00;;;;;1.47;71.17;101882.88;3725779;38;20619;-63
2021/01/10 10:02:37;;;;;;;;;57.00;47.75;;;;;1.60;70.87;101897.16;3725648;38;20657;-63
2021/01/10 10:05:32;;;;;;;;;65.00;51.25;;;;;1.44;70.62;101915.94;3725279;37;20610;-63
2021/01/10 10:08:05;;;;;;;;;57.00;43.00;;;;;1.42;71.11;101899.16;3726014;38;20637;-63
2021/01/10 10:10:36;;;;;;;;;68.75;51.75;;;;;1.54;71.09;101900.25;3725559;37;20615;-64
2021/01/10 10:13:09;;;;;;;;;64.75;51.00;;;;;1.61;70.42;101889.06;3725188;38;20615;-65
2021/01/10 10:15:57;;;;;;;;;66.00;50.25;;;;;1.84;70.72;101908.16;3725577;37;20600;-63
2021/01/10 10:18:29;;;;;;;;;60.25;49.00;;;;;1.95;70.34;101897.69;3725874;38;20622;-63
2021/01/10 10:20:55;;;;;;;;;65.50;53.00;;;;;2.05;70.32;101888.16;3725268;38;20606;-64
2021/01/10 10:23:22;;;;;;;;;62.75;48.75;;;;;2.14;69.64;101892.88;3725312;37;20608;-66
2021/01/10 10:25:51;;;;;;;;;64.50;50.00;;;;;2.23;69.59;101888.78;3725517;37;20579;-63
2021/01/10 10:28:22;;;;;;;;;65.50;52.25;;;;;2.24;70.06;101886.00;3725408;37;20626;-64
2021/01/10 10:30:49;;;;;;;;;67.50;50.00;;;;;2.18;69.01;101885.53;3725410;37;20593;-62
2021/01/10 10:33:16;;;;;;;;;63.00;48.50;;;;;2.03;69.35;101865.16;3725769;37;20609;-62
2021/01/10 10:35:43;;;;;;;;;61.00;49.75;;;;;2.35;68.83;101884.47;3725681;37;20580;-61
2021/01/10 10:38:10;;;;;;;;;60.50;47.75;;;;;2.48;68.64;101885.41;3725249;38;20599;-60
2021/01/10 10:40:38;;;;;;;;;61.75;49.25;;;;;2.57;68.68;101887.47;3725986;37;20576;-62
2021/01/10 10:43:05;;;;;;;;;59.50;46.00;;;;;2.40;68.25;101866.34;3725925;37;20575;-62
2021/01/10 10:45:31;;;;;;;;;59.25;44.75;;;;;2.38;68.22;101886.94;3725052;37;20554;-61
2021/01/10 10:47:57;;;;;;;;;58.25;44.25;;;;;2.29;67.46;101883.03;3725557;38;20571;-60
2021/01/10 10:50:24;;;;;;;;;58.00;47.00;;;;;2.36;67.70;101888.84;3725837;37;20551;-60
2021/01/10 10:52:52;;;;;;;;;59.75;45.00;;;;;2.37;66.94;101874.53;3725835;38;20570;-61
2021/01/10 10:55:22;;;;;;;;;61.50;47.50;;;;;2.49;67.20;101865.75;3725784;38;20542;-62
2021/01/10 10:57:48;;;;;;;;;61.00;47.00;;;;;2.59;66.51;101880.22;3725434;37;20568;-61
2021/01/10 11:00:16;;;;;;;;;60.50;47.25;;;;;2.52;66.55;101873.56;3725675;37;20560;-61
2021/01/10 11:02:44;;;;;;;;;63.50;49.25;;;;;2.45;66.86;101856.22;3725750;37;20538;-63
2021/01/10 11:05:13;;;;;;;;;61.25;50.75;;;;;2.63;66.55;101871.00;3725228;38;20559;-62
2021/01/10 11:07:39;;;;;;;;;61.25;46.25;;;;;2.57;66.17;101876.78;3725218;37;20567;-61
2021/01/10 11:10:09;;;;;;;;;57.75;47.50;;;;;2.61;66.43;101867.59;3725588;37;20548;-61
2021/01/10 11:12:38;;;;;;;;;66.00;49.50;;;;;2.49;66.17;101881.78;3725025;37;20532;-59
2021/01/10 11:15:05;;;;;;;;;56.50;45.00;;;;;2.55;65.86;101873.34;3725297;37;20535;-59
2021/01/10 11:17:31;;;;;;;;;46.75;41.25;;;;;2.67;65.59;101877.87;3725540;37;20530;-62
2021/01/10 11:20:01;;;;;;;;;59.25;44.25;;;;;2.78;65.72;101878.03;3725814;37;20532;-63
2021/01/10 11:22:34;;;;;;;;;46.75;40.00;;;;;2.56;65.64;101854.56;3725417;38;20522;-62
2021/01/10 11:25:07;;;;;;;;;43.00;37.00;;;;;2.46;65.91;101869.47;3724518;37;20540;-62
2021/01/10 11:27:33;;;;;;;;;38.50;35.75;;;;;2.28;66.24;101867.97;3725530;38;20505;-63
2021/01/10 11:29:59;;;;;;;;;47.25;40.50;;;;;2.45;66.07;101867.75;3725813;37;20511;-61
2021/01/10 11:32:26;;;;;;;;;47.25;40.50;;;;;2.55;65.14;101862.66;3725241;38;20515;-63